sensor_id;sensor_type;location;lat;lon;timestamp;noise_LAeq;noise_LA_min;noise_LA_max;noise_LA01;noise_LA95
38366;Laerm;943;51.568;6.998;2023-08-21T00:02:27;39.84;34.36;51.85;;
38366;Laerm;943;51.568;6.998;2023-08-21T00:04:55;39.84;34.36;48.10;;
38366;Laerm;943;51.568;6.998;2023-08-21T00:07:23;40.35;35.03;49.86;;
38366;Laerm;943;51.568;6.998;2023-08-21T00:09:51;43.01;37.48;49.39;;
38366;Laerm;943;51.568;6.998;2023-08-21T00:12:19;39.60;34.73;47.01;;
38366;Laerm;943;51.568;6.998;2023-08-21T00:14:47;36.42;32.30;49.40;;
38366;Laerm;943;51.568;6.998;2023-08-21T00:17:15;38.29;34.12;45.35;;
38366;Laerm;943;51.568;6.998;2023-08-21T00:19:43;38.73;33.64;50.40;;
38366;Laerm;943;51.568;6.998;2023-08-21T00:22:11;38.99;33.90;50.98;;
38366;Laerm;943;51.568;6.998;2023-08-21T00:24:39;37.15;33.19;42.74;;
38366;Laerm;943;51.568;6.998;2023-08-21T00:27:07;37.25;32.75;55.15;;
38366;Laerm;943;51.568;6.998;2023-08-21T00:29:35;37.51;32.88;46.79;;
38366;Laerm;943;51.568;6.998;2023-08-21T00:32:04;39.60;33.45;47.88;;
38366;Laerm;943;51.568;6.998;2023-08-21T00:34:34;41.46;35.86;49.38;;
38366;Laerm;943;51.568;6.998;2023-08-21T00:37:03;39.83;34.03;46.46;;
38366;Laerm;943;51.568;6.998;2023-08-21T00:39:32;39.97;35.14;50.39;;
38366;Laerm;943;51.568;6.998;2023-08-21T00:41:59;42.28;34.40;48.80;;
38366;Laerm;943;51.568;6.998;2023-08-21T00:44:27;41.36;34.40;52.89;;
38366;Laerm;943;51.568;6.998;2023-08-21T00:46:56;39.20;32.78;47.62;;
38366;Laerm;943;51.568;6.998;2023-08-21T00:49:24;37.38;32.95;43.10;;
38366;Laerm;943;51.568;6.998;2023-08-21T00:51:53;40.75;35.00;47.70;;
38366;Laerm;943;51.568;6.998;2023-08-21T00:54:22;39.72;33.04;46.41;;
38366;Laerm;943;51.568;6.998;2023-08-21T00:56:50;39.37;32.87;48.65;;
38366;Laerm;943;51.568;6.998;2023-08-21T00:59:22;38.72;33.96;49.18;;
38366;Laerm;943;51.568;6.998;2023-08-21T01:01:51;42.79;37.00;53.10;;
38366;Laerm;943;51.568;6.998;2023-08-21T01:04:19;41.09;36.36;50.70;;
38366;Laerm;943;51.568;6.998;2023-08-21T01:06:49;39.53;34.84;45.92;;
38366;Laerm;943;51.568;6.998;2023-08-21T01:14:20;40.26;32.69;50.48;;
38366;Laerm;943;51.568;6.998;2023-08-21T01:16:59;41.78;37.18;50.39;;
38366;Laerm;943;51.568;6.998;2023-08-21T01:19:43;40.00;34.87;46.20;;
38366;Laerm;943;51.568;6.998;2023-08-21T01:22:11;40.94;35.24;49.21;;
38366;Laerm;943;51.568;6.998;2023-08-21T01:24:40;40.67;35.80;48.76;;
38366;Laerm;943;51.568;6.998;2023-08-21T01:27:10;40.35;35.70;48.04;;
38366;Laerm;943;51.568;6.998;2023-08-21T01:29:40;38.77;33.01;46.76;;
38366;Laerm;943;51.568;6.998;2023-08-21T01:35:33;39.81;33.67;48.77;;
38366;Laerm;943;51.568;6.998;2023-08-21T01:38:04;39.88;35.38;44.31;;
38366;Laerm;943;51.568;6.998;2023-08-21T01:40:32;40.35;34.67;49.93;;
38366;Laerm;943;51.568;6.998;2023-08-21T01:43:00;42.94;37.37;52.19;;
38366;Laerm;943;51.568;6.998;2023-08-21T01:45:28;42.67;37.77;50.12;;
38366;Laerm;943;51.568;6.998;2023-08-21T01:47:56;40.00;34.88;46.10;;
38366;Laerm;943;51.568;6.998;2023-08-21T01:50:24;42.19;37.41;48.75;;
38366;Laerm;943;51.568;6.998;2023-08-21T01:52:52;41.55;36.13;49.44;;
38366;Laerm;943;51.568;6.998;2023-08-21T01:55:19;40.90;36.48;48.81;;
38366;Laerm;943;51.568;6.998;2023-08-21T01:57:49;41.16;36.23;48.81;;
38366;Laerm;943;51.568;6.998;2023-08-21T02:00:17;46.56;35.09;56.64;;
38366;Laerm;943;51.568;6.998;2023-08-21T02:02:46;41.33;35.34;49.32;;
38366;Laerm;943;51.568;6.998;2023-08-21T02:05:15;42.26;36.72;52.92;;
38366;Laerm;943;51.568;6.998;2023-08-21T02:07:43;41.98;35.34;49.43;;
38366;Laerm;943;51.568;6.998;2023-08-21T02:10:11;40.24;35.05;47.26;;
38366;Laerm;943;51.568;6.998;2023-08-21T02:12:39;43.23;37.48;49.09;;
38366;Laerm;943;51.568;6.998;2023-08-21T02:15:10;44.40;38.39;52.39;;
38366;Laerm;943;51.568;6.998;2023-08-21T02:17:40;42.79;37.11;49.21;;
38366;Laerm;943;51.568;6.998;2023-08-21T02:20:14;41.21;37.69;49.23;;
38366;Laerm;943;51.568;6.998;2023-08-21T02:22:46;42.30;37.51;47.79;;
38366;Laerm;943;51.568;6.998;2023-08-21T02:25:17;40.55;36.50;48.67;;
38366;Laerm;943;51.568;6.998;2023-08-21T02:27:47;41.58;37.53;45.90;;
38366;Laerm;943;51.568;6.998;2023-08-21T02:30:15;40.67;36.62;48.14;;
38366;Laerm;943;51.568;6.998;2023-08-21T02:32:43;42.79;36.94;50.79;;
38366;Laerm;943;51.568;6.998;2023-08-21T02:35:13;43.32;38.91;49.61;;
38366;Laerm;943;51.568;6.998;2023-08-21T02:37:41;43.53;39.42;50.74;;
38366;Laerm;943;51.568;6.998;2023-08-21T02:40:09;44.63;38.84;53.59;;
38366;Laerm;943;51.568;6.998;2023-08-21T02:42:37;43.57;36.32;51.70;;
38366;Laerm;943;51.568;6.998;2023-08-21T02:45:07;43.54;38.90;50.08;;
38366;Laerm;943;51.568;6.998;2023-08-21T02:47:41;45.46;39.38;53.07;;
38366;Laerm;943;51.568;6.998;2023-08-21T02:50:10;44.42;38.70;51.52;;
38366;Laerm;943;51.568;6.998;2023-08-21T02:52:38;44.98;41.03;50.30;;
38366;Laerm;943;51.568;6.998;2023-08-21T02:55:08;43.17;39.28;49.16;;
38366;Laerm;943;51.568;6.998;2023-08-21T02:57:37;43.77;39.23;50.75;;
38366;Laerm;943;51.568;6.998;2023-08-21T03:00:08;44.48;40.26;49.92;;
38366;Laerm;943;51.568;6.998;2023-08-21T03:02:36;44.32;38.84;50.35;;
38366;Laerm;943;51.568;6.998;2023-08-21T03:05:06;44.30;40.53;48.53;;
38366;Laerm;943;51.568;6.998;2023-08-21T03:07:36;43.92;38.59;50.61;;
38366;Laerm;943;51.568;6.998;2023-08-21T03:10:06;44.07;40.49;50.15;;
38366;Laerm;943;51.568;6.998;2023-08-21T03:12:35;44.43;40.38;48.66;;
38366;Laerm;943;51.568;6.998;2023-08-21T03:15:05;46.82;42.51;54.52;;
38366;Laerm;943;51.568;6.998;2023-08-21T03:17:33;47.05;41.34;54.73;;
38366;Laerm;943;51.568;6.998;2023-08-21T03:20:02;45.95;41.67;52.49;;
38366;Laerm;943;51.568;6.998;2023-08-21T03:22:32;46.82;40.21;54.13;;
38366;Laerm;943;51.568;6.998;2023-08-21T03:25:00;46.33;41.80;51.94;;
38366;Laerm;943;51.568;6.998;2023-08-21T03:27:28;46.39;42.59;54.42;;
38366;Laerm;943;51.568;6.998;2023-08-21T03:29:57;44.91;41.22;50.55;;
38366;Laerm;943;51.568;6.998;2023-08-21T03:32:28;45.37;40.57;51.35;;
38366;Laerm;943;51.568;6.998;2023-08-21T03:34:57;46.01;42.90;57.14;;
38366;Laerm;943;51.568;6.998;2023-08-21T03:37:25;45.37;41.38;51.04;;
38366;Laerm;943;51.568;6.998;2023-08-21T03:39:53;46.20;41.51;51.40;;
38366;Laerm;943;51.568;6.998;2023-08-21T03:42:21;46.42;42.68;53.42;;
38366;Laerm;943;51.568;6.998;2023-08-21T03:44:49;45.13;40.95;50.01;;
38366;Laerm;943;51.568;6.998;2023-08-21T03:47:18;45.90;42.66;50.82;;
38366;Laerm;943;51.568;6.998;2023-08-21T03:49:55;44.53;41.13;53.18;;
38366;Laerm;943;51.568;6.998;2023-08-21T03:52:25;45.36;40.90;60.59;;
38366;Laerm;943;51.568;6.998;2023-08-21T03:54:53;47.02;42.09;66.60;;
38366;Laerm;943;51.568;6.998;2023-08-21T03:57:21;44.77;40.98;50.48;;
38366;Laerm;943;51.568;6.998;2023-08-21T03:59:49;44.92;40.69;50.32;;
38366;Laerm;943;51.568;6.998;2023-08-21T04:02:16;46.28;42.27;63.38;;
38366;Laerm;943;51.568;6.998;2023-08-21T04:04:44;47.86;42.96;59.34;;
38366;Laerm;943;51.568;6.998;2023-08-21T04:07:13;45.41;41.85;50.29;;
38366;Laerm;943;51.568;6.998;2023-08-21T04:09:41;45.35;40.70;50.45;;
38366;Laerm;943;51.568;6.998;2023-08-21T04:12:09;46.05;41.77;58.39;;
38366;Laerm;943;51.568;6.998;2023-08-21T04:14:37;46.22;42.11;54.87;;
38366;Laerm;943;51.568;6.998;2023-08-21T04:17:05;45.62;41.65;53.72;;
38366;Laerm;943;51.568;6.998;2023-08-21T04:19:33;46.82;43.24;53.72;;
38366;Laerm;943;51.568;6.998;2023-08-21T04:22:02;45.67;41.35;53.13;;
38366;Laerm;943;51.568;6.998;2023-08-21T04:24:30;45.63;41.70;52.76;;
38366;Laerm;943;51.568;6.998;2023-08-21T04:26:58;45.32;41.24;51.24;;
38366;Laerm;943;51.568;6.998;2023-08-21T04:29:26;44.72;40.83;57.21;;
38366;Laerm;943;51.568;6.998;2023-08-21T04:31:54;45.64;42.02;52.75;;
38366;Laerm;943;51.568;6.998;2023-08-21T04:34:24;44.09;40.93;60.01;;
38366;Laerm;943;51.568;6.998;2023-08-21T04:36:52;46.70;40.96;58.70;;
38366;Laerm;943;51.568;6.998;2023-08-21T04:39:20;45.89;40.97;59.05;;
38366;Laerm;943;51.568;6.998;2023-08-21T04:41:48;45.25;41.20;64.28;;
38366;Laerm;943;51.568;6.998;2023-08-21T04:44:18;46.05;40.42;60.42;;
38366;Laerm;943;51.568;6.998;2023-08-21T04:46:49;44.06;40.97;49.45;;
38366;Laerm;943;51.568;6.998;2023-08-21T04:49:18;44.69;39.87;54.71;;
38366;Laerm;943;51.568;6.998;2023-08-21T04:51:46;44.99;40.25;51.13;;
38366;Laerm;943;51.568;6.998;2023-08-21T04:54:15;43.87;39.89;51.10;;
38366;Laerm;943;51.568;6.998;2023-08-21T04:56:44;44.61;41.10;50.71;;
38366;Laerm;943;51.568;6.998;2023-08-21T04:59:13;44.55;40.56;53.04;;
38366;Laerm;943;51.568;6.998;2023-08-21T05:01:42;44.36;41.17;54.53;;
38366;Laerm;943;51.568;6.998;2023-08-21T05:04:14;45.57;40.76;58.63;;
38366;Laerm;943;51.568;6.998;2023-08-21T05:06:42;48.63;40.94;63.03;;
38366;Laerm;943;51.568;6.998;2023-08-21T05:09:10;48.85;41.52;63.32;;
38366;Laerm;943;51.568;6.998;2023-08-21T05:11:39;44.62;41.17;53.83;;
38366;Laerm;943;51.568;6.998;2023-08-21T05:14:07;44.91;40.72;59.65;;
38366;Laerm;943;51.568;6.998;2023-08-21T05:16:35;45.66;42.40;60.70;;
38366;Laerm;943;51.568;6.998;2023-08-21T05:19:04;45.34;41.07;54.73;;
38366;Laerm;943;51.568;6.998;2023-08-21T05:21:32;47.43;41.26;65.78;;
38366;Laerm;943;51.568;6.998;2023-08-21T05:24:00;45.42;41.40;60.63;;
38366;Laerm;943;51.568;6.998;2023-08-21T05:26:30;48.55;41.54;66.56;;
38366;Laerm;943;51.568;6.998;2023-08-21T05:28:58;46.56;41.94;59.54;;
38366;Laerm;943;51.568;6.998;2023-08-21T05:31:26;49.24;42.06;73.58;;
38366;Laerm;943;51.568;6.998;2023-08-21T05:33:55;49.53;42.36;69.87;;
38366;Laerm;943;51.568;6.998;2023-08-21T05:36:23;45.90;41.55;55.00;;
38366;Laerm;943;51.568;6.998;2023-08-21T05:38:51;47.84;41.28;65.66;;
38366;Laerm;943;51.568;6.998;2023-08-21T05:41:19;46.08;41.60;62.16;;
38366;Laerm;943;51.568;6.998;2023-08-21T05:43:48;46.70;41.54;59.45;;
38366;Laerm;943;51.568;6.998;2023-08-21T05:46:16;44.45;41.38;52.61;;
38366;Laerm;943;51.568;6.998;2023-08-21T05:48:45;44.27;40.97;51.17;;
38366;Laerm;943;51.568;6.998;2023-08-21T05:51:13;44.51;40.21;58.41;;
38366;Laerm;943;51.568;6.998;2023-08-21T05:53:41;44.21;39.11;61.82;;
38366;Laerm;943;51.568;6.998;2023-08-21T05:56:10;43.83;40.55;52.64;;
38366;Laerm;943;51.568;6.998;2023-08-21T05:58:38;47.21;40.26;59.35;;
38366;Laerm;943;51.568;6.998;2023-08-21T06:01:07;50.08;40.88;59.76;;
38366;Laerm;943;51.568;6.998;2023-08-21T06:03:36;46.43;39.98;59.79;;
38366;Laerm;943;51.568;6.998;2023-08-21T06:06:22;44.87;39.60;56.23;;
38366;Laerm;943;51.568;6.998;2023-08-21T06:08:51;46.12;41.06;55.31;;
38366;Laerm;943;51.568;6.998;2023-08-21T06:11:19;44.66;40.98;53.42;;
38366;Laerm;943;51.568;6.998;2023-08-21T06:13:47;45.48;40.67;57.07;;
38366;Laerm;943;51.568;6.998;2023-08-21T06:16:15;44.62;40.57;61.49;;
38366;Laerm;943;51.568;6.998;2023-08-21T06:18:46;47.52;40.83;55.98;;
38366;Laerm;943;51.568;6.998;2023-08-21T06:21:14;43.84;40.44;58.63;;
38366;Laerm;943;51.568;6.998;2023-08-21T06:23:42;46.35;40.58;59.04;;
38366;Laerm;943;51.568;6.998;2023-08-21T06:26:10;43.93;40.55;54.31;;
38366;Laerm;943;51.568;6.998;2023-08-21T06:28:38;44.12;40.64;51.64;;
38366;Laerm;943;51.568;6.998;2023-08-21T06:31:09;45.01;40.83;56.88;;
38366;Laerm;943;51.568;6.998;2023-08-21T06:33:37;44.64;41.36;57.44;;
38366;Laerm;943;51.568;6.998;2023-08-21T06:36:05;49.27;40.20;64.96;;
38366;Laerm;943;51.568;6.998;2023-08-21T06:38:33;45.76;40.85;67.93;;
38366;Laerm;943;51.568;6.998;2023-08-21T06:41:05;44.07;40.40;50.63;;
38366;Laerm;943;51.568;6.998;2023-08-21T06:43:39;46.60;40.57;73.87;;
38366;Laerm;943;51.568;6.998;2023-08-21T06:46:14;44.34;40.41;53.70;;
38366;Laerm;943;51.568;6.998;2023-08-21T06:48:42;45.60;41.24;61.12;;
38366;Laerm;943;51.568;6.998;2023-08-21T06:51:12;45.00;39.63;55.97;;
38366;Laerm;943;51.568;6.998;2023-08-21T06:53:44;48.86;39.88;73.07;;
38366;Laerm;943;51.568;6.998;2023-08-21T06:56:12;50.86;39.54;72.43;;
38366;Laerm;943;51.568;6.998;2023-08-21T06:58:40;48.38;40.40;76.52;;
38366;Laerm;943;51.568;6.998;2023-08-21T07:01:08;52.07;41.84;70.91;;
38366;Laerm;943;51.568;6.998;2023-08-21T07:03:36;44.15;40.07;58.23;;
38366;Laerm;943;51.568;6.998;2023-08-21T07:06:04;44.39;40.65;59.21;;
38366;Laerm;943;51.568;6.998;2023-08-21T07:08:32;44.63;40.08;55.07;;
38366;Laerm;943;51.568;6.998;2023-08-21T07:11:03;44.42;40.84;52.39;;
38366;Laerm;943;51.568;6.998;2023-08-21T07:13:32;50.82;40.44;68.40;;
38366;Laerm;943;51.568;6.998;2023-08-21T07:16:00;44.09;40.46;58.25;;
38366;Laerm;943;51.568;6.998;2023-08-21T07:18:33;47.89;39.97;62.09;;
38366;Laerm;943;51.568;6.998;2023-08-21T07:21:03;45.15;39.88;60.98;;
38366;Laerm;943;51.568;6.998;2023-08-21T07:23:49;47.04;38.46;66.63;;
38366;Laerm;943;51.568;6.998;2023-08-21T07:26:17;42.73;39.16;52.42;;
38366;Laerm;943;51.568;6.998;2023-08-21T07:28:45;45.75;39.95;64.75;;
38366;Laerm;943;51.568;6.998;2023-08-21T07:31:13;43.83;39.71;71.93;;
38366;Laerm;943;51.568;6.998;2023-08-21T07:33:41;42.56;38.36;57.70;;
38366;Laerm;943;51.568;6.998;2023-08-21T07:36:09;42.06;38.32;60.50;;
38366;Laerm;943;51.568;6.998;2023-08-21T07:38:37;42.95;39.13;57.49;;
38366;Laerm;943;51.568;6.998;2023-08-21T07:41:12;43.11;38.59;52.51;;
38366;Laerm;943;51.568;6.998;2023-08-21T07:43:43;42.59;38.35;52.58;;
38366;Laerm;943;51.568;6.998;2023-08-21T07:46:13;48.63;39.31;69.87;;
38366;Laerm;943;51.568;6.998;2023-08-21T07:48:45;43.99;39.74;57.38;;
38366;Laerm;943;51.568;6.998;2023-08-21T07:51:13;44.11;40.58;59.77;;
38366;Laerm;943;51.568;6.998;2023-08-21T07:53:42;44.23;40.42;58.42;;
38366;Laerm;943;51.568;6.998;2023-08-21T07:56:10;45.60;39.78;60.29;;
38366;Laerm;943;51.568;6.998;2023-08-21T07:58:38;48.74;39.03;62.87;;
38366;Laerm;943;51.568;6.998;2023-08-21T08:01:06;47.83;38.68;63.16;;
38366;Laerm;943;51.568;6.998;2023-08-21T08:03:35;44.88;38.98;64.43;;
38366;Laerm;943;51.568;6.998;2023-08-21T08:06:03;44.57;39.50;53.56;;
38366;Laerm;943;51.568;6.998;2023-08-21T08:08:34;45.34;40.25;51.20;;
38366;Laerm;943;51.568;6.998;2023-08-21T08:11:04;45.29;40.73;50.28;;
38366;Laerm;943;51.568;6.998;2023-08-21T08:13:33;44.27;40.52;57.92;;
38366;Laerm;943;51.568;6.998;2023-08-21T08:16:01;45.10;40.17;64.38;;
38366;Laerm;943;51.568;6.998;2023-08-21T08:18:30;44.78;40.66;53.23;;
38366;Laerm;943;51.568;6.998;2023-08-21T08:20:58;47.37;41.95;68.29;;
38366;Laerm;943;51.568;6.998;2023-08-21T08:23:26;46.34;40.97;58.24;;
38366;Laerm;943;51.568;6.998;2023-08-21T08:25:55;44.91;40.43;59.96;;
38366;Laerm;943;51.568;6.998;2023-08-21T08:28:23;59.35;41.56;71.71;;
38366;Laerm;943;51.568;6.998;2023-08-21T08:30:51;58.54;40.34;65.01;;
38366;Laerm;943;51.568;6.998;2023-08-21T08:33:20;44.03;39.12;64.00;;
38366;Laerm;943;51.568;6.998;2023-08-21T08:35:48;47.46;39.69;61.34;;
38366;Laerm;943;51.568;6.998;2023-08-21T08:38:18;47.36;41.36;60.03;;
38366;Laerm;943;51.568;6.998;2023-08-21T08:40:51;48.01;40.87;56.61;;
38366;Laerm;943;51.568;6.998;2023-08-21T08:43:25;45.25;40.37;52.34;;
38366;Laerm;943;51.568;6.998;2023-08-21T08:45:58;45.02;40.35;54.93;;
38366;Laerm;943;51.568;6.998;2023-08-21T08:48:26;58.50;42.84;74.76;;
38366;Laerm;943;51.568;6.998;2023-08-21T08:50:54;46.70;41.53;64.50;;
38366;Laerm;943;51.568;6.998;2023-08-21T08:53:28;46.25;42.12;59.12;;
38366;Laerm;943;51.568;6.998;2023-08-21T08:55:58;49.02;42.23;59.45;;
38366;Laerm;943;51.568;6.998;2023-08-21T08:58:29;46.32;41.20;70.65;;
38366;Laerm;943;51.568;6.998;2023-08-21T09:00:57;46.99;40.89;58.29;;
38366;Laerm;943;51.568;6.998;2023-08-21T09:03:25;46.21;40.38;58.35;;
38366;Laerm;943;51.568;6.998;2023-08-21T09:05:54;45.55;41.84;57.40;;
38366;Laerm;943;51.568;6.998;2023-08-21T09:08:21;46.48;42.07;54.92;;
38366;Laerm;943;51.568;6.998;2023-08-21T09:10:49;46.45;40.16;66.86;;
38366;Laerm;943;51.568;6.998;2023-08-21T09:13:19;48.51;41.38;73.48;;
38366;Laerm;943;51.568;6.998;2023-08-21T09:15:54;46.15;42.07;56.71;;
38366;Laerm;943;51.568;6.998;2023-08-21T09:18:25;48.41;41.55;59.94;;
38366;Laerm;943;51.568;6.998;2023-08-21T09:20:56;48.57;42.48;59.21;;
38366;Laerm;943;51.568;6.998;2023-08-21T09:23:23;44.45;38.94;63.96;;
38366;Laerm;943;51.568;6.998;2023-08-21T09:25:51;42.94;40.26;49.37;;
38366;Laerm;943;51.568;6.998;2023-08-21T09:28:21;43.32;39.78;52.39;;
38366;Laerm;943;51.568;6.998;2023-08-21T09:30:53;43.82;38.85;51.28;;
38366;Laerm;943;51.568;6.998;2023-08-21T09:33:24;44.65;39.14;55.01;;
38366;Laerm;943;51.568;6.998;2023-08-21T09:35:54;44.76;39.19;56.45;;
38366;Laerm;943;51.568;6.998;2023-08-21T09:38:25;44.63;40.60;55.97;;
38366;Laerm;943;51.568;6.998;2023-08-21T09:40:56;49.61;40.85;71.47;;
38366;Laerm;943;51.568;6.998;2023-08-21T09:43:27;46.01;41.02;57.88;;
38366;Laerm;943;51.568;6.998;2023-08-21T09:45:57;44.16;40.12;54.00;;
38366;Laerm;943;51.568;6.998;2023-08-21T09:48:27;45.83;40.39;63.78;;
38366;Laerm;943;51.568;6.998;2023-08-21T09:50:55;45.11;41.31;57.37;;
38366;Laerm;943;51.568;6.998;2023-08-21T09:53:24;45.02;40.94;52.56;;
38366;Laerm;943;51.568;6.998;2023-08-21T09:55:56;51.36;40.55;67.99;;
38366;Laerm;943;51.568;6.998;2023-08-21T09:58:25;46.32;40.41;55.98;;
38366;Laerm;943;51.568;6.998;2023-08-21T10:00:59;45.79;39.67;61.47;;
38366;Laerm;943;51.568;6.998;2023-08-21T10:03:30;46.89;39.85;60.88;;
38366;Laerm;943;51.568;6.998;2023-08-21T10:06:01;43.81;39.05;62.30;;
38366;Laerm;943;51.568;6.998;2023-08-21T10:08:36;44.44;38.74;55.21;;
38366;Laerm;943;51.568;6.998;2023-08-21T10:11:08;43.92;38.76;55.79;;
38366;Laerm;943;51.568;6.998;2023-08-21T10:13:39;44.60;39.91;54.98;;
38366;Laerm;943;51.568;6.998;2023-08-21T10:16:08;44.11;39.01;56.73;;
38366;Laerm;943;51.568;6.998;2023-08-21T10:18:45;45.04;40.69;61.92;;
38366;Laerm;943;51.568;6.998;2023-08-21T10:21:23;44.22;38.77;58.24;;
38366;Laerm;943;51.568;6.998;2023-08-21T10:24:00;46.52;39.77;59.09;;
38366;Laerm;943;51.568;6.998;2023-08-21T10:26:29;43.47;38.62;52.07;;
38366;Laerm;943;51.568;6.998;2023-08-21T10:29:02;43.75;38.36;56.73;;
38366;Laerm;943;51.568;6.998;2023-08-21T10:31:41;46.67;38.74;67.51;;
38366;Laerm;943;51.568;6.998;2023-08-21T10:34:13;50.42;41.03;75.17;;
38366;Laerm;943;51.568;6.998;2023-08-21T10:39:27;50.06;40.76;66.63;;
38366;Laerm;943;51.568;6.998;2023-08-21T10:42:11;44.65;40.07;55.33;;
38366;Laerm;943;51.568;6.998;2023-08-21T10:47:32;46.15;40.76;56.20;;
38366;Laerm;943;51.568;6.998;2023-08-21T10:50:08;44.46;40.38;54.82;;
38366;Laerm;943;51.568;6.998;2023-08-21T10:52:43;46.81;41.75;57.51;;
38366;Laerm;943;51.568;6.998;2023-08-21T10:55:15;46.51;40.81;56.66;;
38366;Laerm;943;51.568;6.998;2023-08-21T10:57:47;44.68;38.93;56.73;;
38366;Laerm;943;51.568;6.998;2023-08-21T11:00:19;46.86;39.94;60.19;;
38366;Laerm;943;51.568;6.998;2023-08-21T11:02:50;45.07;39.47;55.80;;
38366;Laerm;943;51.568;6.998;2023-08-21T11:05:18;43.84;39.51;54.03;;
38366;Laerm;943;51.568;6.998;2023-08-21T11:07:48;42.91;38.65;54.26;;
38366;Laerm;943;51.568;6.998;2023-08-21T11:10:23;41.30;38.17;48.04;;
38366;Laerm;943;51.568;6.998;2023-08-21T11:12:56;46.77;37.83;66.08;;
38366;Laerm;943;51.568;6.998;2023-08-21T11:15:29;43.85;39.48;51.23;;
38366;Laerm;943;51.568;6.998;2023-08-21T11:18:02;43.23;38.08;71.91;;
38366;Laerm;943;51.568;6.998;2023-08-21T11:20:36;44.70;37.28;60.25;;
38366;Laerm;943;51.568;6.998;2023-08-21T11:23:06;42.50;37.65;50.93;;
38366;Laerm;943;51.568;6.998;2023-08-21T11:25:39;43.32;38.87;54.24;;
38366;Laerm;943;51.568;6.998;2023-08-21T11:28:08;46.08;41.50;59.63;;
38366;Laerm;943;51.568;6.998;2023-08-21T11:30:37;47.80;41.87;63.21;;
38366;Laerm;943;51.568;6.998;2023-08-21T11:33:13;43.94;39.89;54.02;;
38366;Laerm;943;51.568;6.998;2023-08-21T11:35:42;42.11;38.09;48.86;;
38366;Laerm;943;51.568;6.998;2023-08-21T11:38:23;43.70;38.96;62.04;;
38366;Laerm;943;51.568;6.998;2023-08-21T11:41:04;47.22;39.19;61.32;;
38366;Laerm;943;51.568;6.998;2023-08-21T11:43:41;45.38;40.06;67.30;;
38366;Laerm;943;51.568;6.998;2023-08-21T11:46:11;43.70;39.27;54.30;;
38366;Laerm;943;51.568;6.998;2023-08-21T11:48:41;47.92;40.41;77.01;;
38366;Laerm;943;51.568;6.998;2023-08-21T11:51:10;47.92;41.28;69.10;;
38366;Laerm;943;51.568;6.998;2023-08-21T11:53:41;47.68;41.75;66.04;;
38366;Laerm;943;51.568;6.998;2023-08-21T11:56:17;45.49;39.13;58.86;;
38366;Laerm;943;51.568;6.998;2023-08-21T11:58:49;45.34;40.88;55.93;;
38366;Laerm;943;51.568;6.998;2023-08-21T12:01:20;51.88;41.91;77.82;;
38366;Laerm;943;51.568;6.998;2023-08-21T12:03:49;46.17;40.45;59.40;;
38366;Laerm;943;51.568;6.998;2023-08-21T12:06:24;47.09;41.42;62.32;;
38366;Laerm;943;51.568;6.998;2023-08-21T12:08:53;48.08;40.77;69.83;;
38366;Laerm;943;51.568;6.998;2023-08-21T12:11:22;46.02;41.14;58.01;;
38366;Laerm;943;51.568;6.998;2023-08-21T12:13:51;59.96;41.37;84.66;;
38366;Laerm;943;51.568;6.998;2023-08-21T12:16:19;46.88;42.54;59.00;;
38366;Laerm;943;51.568;6.998;2023-08-21T12:18:47;45.57;40.78;56.83;;
38366;Laerm;943;51.568;6.998;2023-08-21T12:21:16;47.80;40.45;70.97;;
38366;Laerm;943;51.568;6.998;2023-08-21T12:23:44;49.83;41.12;72.57;;
38366;Laerm;943;51.568;6.998;2023-08-21T12:26:11;47.37;42.30;54.55;;
38366;Laerm;943;51.568;6.998;2023-08-21T12:28:40;47.02;41.65;60.48;;
38366;Laerm;943;51.568;6.998;2023-08-21T12:31:09;45.73;41.68;62.68;;
38366;Laerm;943;51.568;6.998;2023-08-21T12:33:38;46.49;39.41;60.66;;
38366;Laerm;943;51.568;6.998;2023-08-21T12:36:06;46.86;40.93;62.65;;
38366;Laerm;943;51.568;6.998;2023-08-21T12:38:36;46.50;42.66;61.12;;
38366;Laerm;943;51.568;6.998;2023-08-21T12:41:04;46.93;41.84;61.44;;
38366;Laerm;943;51.568;6.998;2023-08-21T12:43:32;44.62;40.43;55.30;;
38366;Laerm;943;51.568;6.998;2023-08-21T12:46:01;44.41;40.42;54.97;;
38366;Laerm;943;51.568;6.998;2023-08-21T12:48:29;45.68;41.34;57.83;;
38366;Laerm;943;51.568;6.998;2023-08-21T12:50:57;45.29;40.94;54.73;;
38366;Laerm;943;51.568;6.998;2023-08-21T12:53:25;43.66;39.76;53.36;;
38366;Laerm;943;51.568;6.998;2023-08-21T12:55:53;44.88;41.02;55.94;;
38366;Laerm;943;51.568;6.998;2023-08-21T12:58:21;45.27;38.36;69.98;;
38366;Laerm;943;51.568;6.998;2023-08-21T13:00:49;43.97;40.14;62.28;;
38366;Laerm;943;51.568;6.998;2023-08-21T13:03:17;43.31;39.67;51.97;;
38366;Laerm;943;51.568;6.998;2023-08-21T13:05:47;42.84;38.53;54.48;;
38366;Laerm;943;51.568;6.998;2023-08-21T13:08:15;44.77;39.05;55.88;;
38366;Laerm;943;51.568;6.998;2023-08-21T13:10:43;44.71;40.05;56.23;;
38366;Laerm;943;51.568;6.998;2023-08-21T13:13:11;46.20;41.50;64.53;;
38366;Laerm;943;51.568;6.998;2023-08-21T13:15:39;53.45;40.95;84.57;;
38366;Laerm;943;51.568;6.998;2023-08-21T13:18:08;45.52;40.88;55.89;;
38366;Laerm;943;51.568;6.998;2023-08-21T13:20:36;44.37;39.88;60.66;;
38366;Laerm;943;51.568;6.998;2023-08-21T13:23:04;43.83;38.24;58.13;;
38366;Laerm;943;51.568;6.998;2023-08-21T13:25:33;43.30;38.22;52.24;;
38366;Laerm;943;51.568;6.998;2023-08-21T13:28:03;44.87;37.78;63.60;;
38366;Laerm;943;51.568;6.998;2023-08-21T13:30:31;44.50;40.14;56.27;;
38366;Laerm;943;51.568;6.998;2023-08-21T13:33:00;44.77;40.73;56.35;;
38366;Laerm;943;51.568;6.998;2023-08-21T13:35:28;44.25;40.39;50.95;;
38366;Laerm;943;51.568;6.998;2023-08-21T13:37:55;44.69;39.83;54.78;;
38366;Laerm;943;51.568;6.998;2023-08-21T13:40:25;46.64;40.38;63.60;;
38366;Laerm;943;51.568;6.998;2023-08-21T13:42:53;45.19;40.44;57.80;;
38366;Laerm;943;51.568;6.998;2023-08-21T13:45:24;43.88;39.47;52.51;;
38366;Laerm;943;51.568;6.998;2023-08-21T13:47:51;44.49;40.20;56.62;;
38366;Laerm;943;51.568;6.998;2023-08-21T13:50:20;45.57;41.80;56.51;;
38366;Laerm;943;51.568;6.998;2023-08-21T13:52:49;47.94;41.18;64.12;;
38366;Laerm;943;51.568;6.998;2023-08-21T13:55:18;48.95;40.11;60.90;;
38366;Laerm;943;51.568;6.998;2023-08-21T13:57:46;46.98;42.38;59.95;;
38366;Laerm;943;51.568;6.998;2023-08-21T14:00:15;51.54;42.83;66.45;;
38366;Laerm;943;51.568;6.998;2023-08-21T14:02:46;45.68;41.41;54.08;;
38366;Laerm;943;51.568;6.998;2023-08-21T14:05:14;45.19;41.38;57.90;;
38366;Laerm;943;51.568;6.998;2023-08-21T14:07:42;54.11;40.91;82.91;;
38366;Laerm;943;51.568;6.998;2023-08-21T14:10:10;46.71;40.90;57.33;;
38366;Laerm;943;51.568;6.998;2023-08-21T14:12:39;46.98;40.59;69.87;;
38366;Laerm;943;51.568;6.998;2023-08-21T14:15:11;44.93;39.87;58.32;;
38366;Laerm;943;51.568;6.998;2023-08-21T14:17:39;44.58;40.30;54.85;;
38366;Laerm;943;51.568;6.998;2023-08-21T14:20:09;46.19;40.97;59.44;;
38366;Laerm;943;51.568;6.998;2023-08-21T14:22:38;44.90;40.26;55.77;;
38366;Laerm;943;51.568;6.998;2023-08-21T14:25:06;46.30;40.99;61.53;;
38366;Laerm;943;51.568;6.998;2023-08-21T14:27:35;43.20;38.95;53.69;;
38366;Laerm;943;51.568;6.998;2023-08-21T14:30:05;45.26;40.86;59.89;;
38366;Laerm;943;51.568;6.998;2023-08-21T14:32:34;45.43;40.14;59.13;;
38366;Laerm;943;51.568;6.998;2023-08-21T14:35:06;49.39;40.66;69.33;;
38366;Laerm;943;51.568;6.998;2023-08-21T14:37:37;44.81;39.98;58.69;;